WOA223 KMCO-KFLL
Flight info
| Callsign | WOA223 |
|---|---|
| Flight time | 0h 37m |
| Altitude | 29000 |
| Route | DDANY3 JIPOD CUUDA3 |
| Aircraft | MD11/H-SDE1E2E3FGHIJ2J3J4J5M1RWXY/LB1D1 |
Departure
| Time | 2026-04-23 16:46 |
|---|---|
| Airport | Orlando International Airport (KMCO) |
Arrival
| Time | 2026-04-23 17:24 |
|---|---|
| Airport | Fort Lauderdale Hollywood International Airport (KFLL) |
| Time | Latitude | Longitude | Altitude | Speed | Heading |
|---|---|---|---|---|---|
| 2026-04-23 16:29 | 28.42631 | -81.33027 | 105 ft | 0 kts | 2° |
| 2026-04-23 16:40 | 28.42631 | -81.33026 | 108 ft | 1 kts | 2° |
| 2026-04-23 16:40 | 28.42662 | -81.33018 | 109 ft | 5 kts | 20° |
| 2026-04-23 16:40 | 28.42691 | -81.33006 | 109 ft | 5 kts | 20° |
| 2026-04-23 16:40 | 28.42787 | -81.32965 | 105 ft | 21 kts | 20° |
| 2026-04-23 16:41 | 28.42920 | -81.32928 | 106 ft | 19 kts | 4° |
| 2026-04-23 16:41 | 28.43043 | -81.32926 | 106 ft | 17 kts | 360° |
| 2026-04-23 16:41 | 28.43157 | -81.32927 | 106 ft | 15 kts | 359° |
| 2026-04-23 16:41 | 28.43262 | -81.32928 | 106 ft | 16 kts | 360° |
| 2026-04-23 16:42 | 28.43375 | -81.32930 | 106 ft | 16 kts | 359° |
| 2026-04-23 16:42 | 28.43507 | -81.32932 | 106 ft | 22 kts | 359° |
| 2026-04-23 16:42 | 28.43681 | -81.32934 | 106 ft | 26 kts | 359° |
| 2026-04-23 16:42 | 28.43862 | -81.32935 | 105 ft | 28 kts | 360° |
| 2026-04-23 16:43 | 28.44049 | -81.32883 | 107 ft | 27 kts | 20° |
| 2026-04-23 16:43 | 28.44224 | -81.32865 | 106 ft | 25 kts | 356° |
| 2026-04-23 16:43 | 28.44397 | -81.32870 | 106 ft | 24 kts | 0° |
| 2026-04-23 16:43 | 28.44556 | -81.32870 | 106 ft | 22 kts | 360° |
| 2026-04-23 16:44 | 28.44681 | -81.32870 | 106 ft | 17 kts | 360° |
| 2026-04-23 16:44 | 28.44772 | -81.32871 | 107 ft | 10 kts | 0° |
| 2026-04-23 16:44 | 28.44804 | -81.32850 | 107 ft | 6 kts | 53° |
| 2026-04-23 16:44 | 28.44815 | -81.32789 | 107 ft | 8 kts | 83° |
| 2026-04-23 16:45 | 28.44800 | -81.32728 | 107 ft | 13 kts | 128° |
| 2026-04-23 16:45 | 28.44731 | -81.32698 | 107 ft | 0 kts | 175° |
| 2026-04-23 16:46 | 28.44730 | -81.32698 | 107 ft | 2 kts | 175° |
| 2026-04-23 16:46 | 28.44394 | -81.32688 | 106 ft | 100 kts | 180° |
| 2026-04-23 16:46 | 28.43387 | -81.32679 | 109 ft | 184 kts | 180° |
| 2026-04-23 16:46 | 28.42015 | -81.32682 | 774 ft | 201 kts | 175° |
| 2026-04-23 16:47 | 28.40637 | -81.32606 | 2127 ft | 183 kts | 171° |
| 2026-04-23 16:47 | 28.39465 | -81.32229 | 3612 ft | 184 kts | 150° |
| 2026-04-23 16:47 | 28.38347 | -81.31196 | 3950 ft | 232 kts | 133° |
| 2026-04-23 16:47 | 28.37189 | -81.29750 | 4440 ft | 255 kts | 130° |
| 2026-04-23 16:48 | 28.36010 | -81.28227 | 5383 ft | 258 kts | 130° |
| 2026-04-23 16:48 | 28.35031 | -81.26558 | 6312 ft | 259 kts | 112° |
| 2026-04-23 16:48 | 28.34508 | -81.24581 | 7167 ft | 265 kts | 103° |
| 2026-04-23 16:48 | 28.34132 | -81.22518 | 8072 ft | 269 kts | 102° |
| 2026-04-23 16:49 | 28.33891 | -81.21088 | 8593 ft | 277 kts | 101° |
| 2026-04-23 16:49 | 28.33413 | -81.18196 | 9625 ft | 287 kts | 101° |
| 2026-04-23 16:49 | 28.33037 | -81.15922 | 10206 ft | 305 kts | 101° |
| 2026-04-23 16:49 | 28.32624 | -81.13440 | 10335 ft | 336 kts | 101° |
| 2026-04-23 16:50 | 28.32169 | -81.10721 | 10491 ft | 364 kts | 101° |
| 2026-04-23 16:50 | 28.31689 | -81.07865 | 11210 ft | 371 kts | 101° |
| 2026-04-23 16:50 | 28.31202 | -81.04969 | 12019 ft | 378 kts | 101° |
| 2026-04-23 16:50 | 28.30704 | -81.02021 | 12835 ft | 384 kts | 101° |
| 2026-04-23 16:51 | 28.30197 | -80.99022 | 13670 ft | 389 kts | 101° |
| 2026-04-23 16:51 | 28.29683 | -80.95988 | 14420 ft | 395 kts | 101° |
| 2026-04-23 16:51 | 28.29159 | -80.92904 | 15120 ft | 400 kts | 101° |
| 2026-04-23 16:51 | 28.28637 | -80.89831 | 15821 ft | 405 kts | 101° |
| 2026-04-23 16:52 | 28.28022 | -80.86692 | 16515 ft | 409 kts | 106° |
| 2026-04-23 16:52 | 28.27118 | -80.83608 | 17205 ft | 415 kts | 111° |
| 2026-04-23 16:52 | 28.26054 | -80.80541 | 17885 ft | 421 kts | 112° |
| 2026-04-23 16:52 | 28.24923 | -80.77456 | 18550 ft | 427 kts | 113° |
| 2026-04-23 16:53 | 28.23768 | -80.74335 | 19144 ft | 432 kts | 113° |
| 2026-04-23 16:53 | 28.22607 | -80.71175 | 19732 ft | 437 kts | 113° |
| 2026-04-23 16:53 | 28.21448 | -80.67972 | 20314 ft | 442 kts | 112° |
| 2026-04-23 16:53 | 28.20322 | -80.64705 | 20884 ft | 447 kts | 111° |
| 2026-04-23 16:54 | 28.19219 | -80.61391 | 21465 ft | 451 kts | 111° |
| 2026-04-23 16:54 | 28.18120 | -80.58038 | 22045 ft | 456 kts | 111° |
| 2026-04-23 16:54 | 28.17014 | -80.54648 | 22611 ft | 461 kts | 111° |
| 2026-04-23 16:54 | 28.15895 | -80.51221 | 23139 ft | 467 kts | 111° |
| 2026-04-23 16:55 | 28.14773 | -80.47798 | 23678 ft | 472 kts | 111° |
| 2026-04-23 16:55 | 28.13623 | -80.44300 | 24174 ft | 476 kts | 111° |
| 2026-04-23 16:55 | 28.12451 | -80.40783 | 24671 ft | 479 kts | 113° |
| 2026-04-23 16:55 | 28.11064 | -80.37352 | 25164 ft | 480 kts | 121° |
| 2026-04-23 16:56 | 28.09201 | -80.34219 | 25616 ft | 480 kts | 133° |
| 2026-04-23 16:56 | 28.06796 | -80.31609 | 25974 ft | 479 kts | 147° |
| 2026-04-23 16:56 | 28.03965 | -80.29680 | 26336 ft | 473 kts | 159° |
| 2026-04-23 16:56 | 28.00921 | -80.28299 | 26691 ft | 469 kts | 165° |
| 2026-04-23 16:57 | 27.99206 | -80.27651 | 26845 ft | 471 kts | 166° |
| 2026-04-23 16:57 | 27.99023 | -80.27584 | 26852 ft | 471 kts | 166° |
| 2026-04-23 16:57 | 27.95870 | -80.26478 | 26930 ft | 473 kts | 167° |
| 2026-04-23 16:58 | 27.92761 | -80.25388 | 26947 ft | 464 kts | 167° |
| 2026-04-23 16:58 | 27.89692 | -80.24275 | 26957 ft | 464 kts | 166° |
| 2026-04-23 16:58 | 27.86628 | -80.23126 | 26958 ft | 464 kts | 166° |
| 2026-04-23 16:58 | 27.83569 | -80.21951 | 26972 ft | 464 kts | 165° |
| 2026-04-23 16:59 | 27.80559 | -80.20778 | 26958 ft | 464 kts | 165° |
| 2026-04-23 16:59 | 27.77505 | -80.19581 | 26958 ft | 464 kts | 165° |
| 2026-04-23 16:59 | 27.74454 | -80.18384 | 26963 ft | 464 kts | 165° |
| 2026-04-23 16:59 | 27.71407 | -80.17190 | 26949 ft | 464 kts | 165° |
| 2026-04-23 17:00 | 27.68357 | -80.15995 | 26963 ft | 464 kts | 165° |
| 2026-04-23 17:00 | 27.65300 | -80.14800 | 26965 ft | 464 kts | 165° |
| 2026-04-23 17:00 | 27.62248 | -80.13599 | 26957 ft | 465 kts | 165° |
| 2026-04-23 17:00 | 27.59205 | -80.12366 | 26962 ft | 465 kts | 164° |
| 2026-04-23 17:01 | 27.56166 | -80.11112 | 26959 ft | 465 kts | 164° |
| 2026-04-23 17:01 | 27.53130 | -80.09850 | 26949 ft | 465 kts | 164° |
| 2026-04-23 17:01 | 27.50093 | -80.08586 | 26959 ft | 465 kts | 164° |
| 2026-04-23 17:01 | 27.47055 | -80.07323 | 26954 ft | 465 kts | 164° |
| 2026-04-23 17:02 | 27.45046 | -80.06489 | 26952 ft | 465 kts | 164° |
| 2026-04-23 17:02 | 27.41636 | -80.05076 | 26937 ft | 465 kts | 164° |
| 2026-04-23 17:02 | 27.39364 | -80.04175 | 26950 ft | 464 kts | 166° |
| 2026-04-23 17:02 | 27.36278 | -80.03102 | 26933 ft | 462 kts | 168° |
| 2026-04-23 17:03 | 27.33252 | -80.02144 | 26818 ft | 440 kts | 169° |
| 2026-04-23 17:03 | 27.30356 | -80.01262 | 26274 ft | 427 kts | 169° |
| 2026-04-23 17:03 | 27.27500 | -80.00407 | 25474 ft | 423 kts | 169° |
| 2026-04-23 17:03 | 27.24680 | -79.99508 | 24684 ft | 420 kts | 168° |
| 2026-04-23 17:04 | 27.21903 | -79.98550 | 23937 ft | 416 kts | 167° |
| 2026-04-23 17:04 | 27.19152 | -79.97564 | 23111 ft | 412 kts | 166° |
| 2026-04-23 17:04 | 27.16478 | -79.96593 | 22317 ft | 407 kts | 166° |
| 2026-04-23 17:04 | 27.13796 | -79.95618 | 21527 ft | 402 kts | 166° |
| 2026-04-23 17:05 | 27.11153 | -79.94658 | 20771 ft | 397 kts | 166° |
| 2026-04-23 17:05 | 27.08546 | -79.93714 | 20061 ft | 391 kts | 166° |
| 2026-04-23 17:05 | 27.05984 | -79.92744 | 19461 ft | 384 kts | 164° |
| 2026-04-23 17:05 | 27.03514 | -79.91760 | 19026 ft | 373 kts | 164° |
| 2026-04-23 17:06 | 27.01078 | -79.90776 | 18377 ft | 370 kts | 164° |
| 2026-04-23 17:06 | 26.98671 | -79.89801 | 17667 ft | 366 kts | 163° |
| 2026-04-23 17:06 | 26.96287 | -79.88836 | 16970 ft | 362 kts | 163° |
| 2026-04-23 17:06 | 26.93924 | -79.87881 | 16405 ft | 356 kts | 163° |
| 2026-04-23 17:07 | 26.91599 | -79.86942 | 16036 ft | 358 kts | 163° |
| 2026-04-23 17:07 | 26.89258 | -79.85999 | 15664 ft | 356 kts | 163° |
| 2026-04-23 17:07 | 26.86929 | -79.85061 | 15316 ft | 354 kts | 163° |
| 2026-04-23 17:07 | 26.84625 | -79.84134 | 15181 ft | 352 kts | 163° |
| 2026-04-23 17:08 | 26.82316 | -79.83205 | 15155 ft | 352 kts | 163° |
| 2026-04-23 17:08 | 26.80786 | -79.82589 | 15152 ft | 352 kts | 163° |
| 2026-04-23 17:08 | 26.77725 | -79.81354 | 15143 ft | 354 kts | 163° |
| 2026-04-23 17:08 | 26.75411 | -79.80419 | 15152 ft | 354 kts | 163° |
| 2026-04-23 17:09 | 26.73098 | -79.79486 | 15143 ft | 353 kts | 163° |
| 2026-04-23 17:09 | 26.70741 | -79.78763 | 15145 ft | 349 kts | 176° |
| 2026-04-23 17:09 | 26.69162 | -79.78726 | 15141 ft | 335 kts | 191° |
| 2026-04-23 17:09 | 26.66928 | -79.79307 | 15144 ft | 328 kts | 202° |
| 2026-04-23 17:10 | 26.64783 | -79.80174 | 15149 ft | 326 kts | 205° |
| 2026-04-23 17:10 | 26.62674 | -79.81107 | 15152 ft | 329 kts | 207° |
| 2026-04-23 17:10 | 26.60541 | -79.82211 | 15156 ft | 339 kts | 210° |
| 2026-04-23 17:10 | 26.58447 | -79.83419 | 15155 ft | 340 kts | 214° |
| 2026-04-23 17:11 | 26.56465 | -79.84809 | 14682 ft | 335 kts | 217° |
| 2026-04-23 17:11 | 26.54539 | -79.86281 | 13964 ft | 335 kts | 218° |
| 2026-04-23 17:11 | 26.52627 | -79.87760 | 13274 ft | 333 kts | 218° |
| 2026-04-23 17:11 | 26.50768 | -79.89178 | 13048 ft | 316 kts | 218° |
| 2026-04-23 17:12 | 26.48959 | -79.90543 | 12462 ft | 313 kts | 217° |
| 2026-04-23 17:12 | 26.47157 | -79.91893 | 11862 ft | 311 kts | 217° |
| 2026-04-23 17:12 | 26.45364 | -79.93226 | 11285 ft | 309 kts | 216° |
| 2026-04-23 17:12 | 26.43578 | -79.94550 | 10697 ft | 308 kts | 216° |
| 2026-04-23 17:13 | 26.41799 | -79.95864 | 10131 ft | 306 kts | 216° |
| 2026-04-23 17:13 | 26.40027 | -79.97170 | 9482 ft | 305 kts | 216° |
| 2026-04-23 17:13 | 26.38269 | -79.98467 | 8904 ft | 301 kts | 214° |
| 2026-04-23 17:13 | 26.36729 | -80.00002 | 8298 ft | 296 kts | 232° |
| 2026-04-23 17:14 | 26.35581 | -80.01885 | 7903 ft | 288 kts | 238° |
| 2026-04-23 17:14 | 26.34557 | -80.03742 | 7476 ft | 283 kts | 238° |
| 2026-04-23 17:14 | 26.33510 | -80.05595 | 6985 ft | 282 kts | 236° |
| 2026-04-23 17:14 | 26.32439 | -80.07421 | 6493 ft | 281 kts | 235° |
| 2026-04-23 17:15 | 26.31345 | -80.09223 | 5952 ft | 281 kts | 233° |
| 2026-04-23 17:15 | 26.30242 | -80.11007 | 5517 ft | 278 kts | 233° |
| 2026-04-23 17:15 | 26.29142 | -80.12763 | 5103 ft | 274 kts | 233° |
| 2026-04-23 17:15 | 26.28045 | -80.14496 | 4590 ft | 273 kts | 233° |
| 2026-04-23 17:16 | 26.26952 | -80.16215 | 4179 ft | 270 kts | 232° |
| 2026-04-23 17:16 | 26.25883 | -80.17889 | 4001 ft | 264 kts | 232° |
| 2026-04-23 17:16 | 26.24786 | -80.19600 | 3996 ft | 272 kts | 232° |
| 2026-04-23 17:16 | 26.23685 | -80.21317 | 4004 ft | 274 kts | 232° |
| 2026-04-23 17:17 | 26.22571 | -80.23047 | 3975 ft | 275 kts | 231° |
| 2026-04-23 17:17 | 26.21457 | -80.24778 | 4000 ft | 275 kts | 232° |
| 2026-04-23 17:17 | 26.20349 | -80.26497 | 3971 ft | 272 kts | 232° |
| 2026-04-23 17:17 | 26.19241 | -80.28216 | 3995 ft | 270 kts | 232° |
| 2026-04-23 17:18 | 26.17104 | -80.31532 | 3982 ft | 262 kts | 231° |
| 2026-04-23 17:18 | 26.16046 | -80.33169 | 3951 ft | 257 kts | 232° |
| 2026-04-23 17:18 | 26.14984 | -80.34705 | 3781 ft | 242 kts | 224° |
| 2026-04-23 17:19 | 26.13695 | -80.35803 | 3446 ft | 233 kts | 200° |
| 2026-04-23 17:19 | 26.12158 | -80.36200 | 3078 ft | 223 kts | 175° |
| 2026-04-23 17:19 | 26.10722 | -80.35850 | 2974 ft | 204 kts | 150° |
| 2026-04-23 17:19 | 26.09512 | -80.34984 | 3004 ft | 211 kts | 142° |
| 2026-04-23 17:20 | 26.08336 | -80.33994 | 2997 ft | 212 kts | 139° |
| 2026-04-23 17:20 | 26.07418 | -80.31171 | 2509 ft | 184 kts | 85° |
| 2026-04-23 17:21 | 26.07669 | -80.28507 | 2112 ft | 161 kts | 87° |
| 2026-04-23 17:21 | 26.07731 | -80.27291 | 1871 ft | 152 kts | 87° |
| 2026-04-23 17:21 | 26.07740 | -80.24756 | 1537 ft | 190 kts | 90° |
| 2026-04-23 17:22 | 26.07734 | -80.23240 | 1265 ft | 200 kts | 91° |
| 2026-04-23 17:22 | 26.07717 | -80.20147 | 692 ft | 203 kts | 91° |
| 2026-04-23 17:23 | 26.07703 | -80.17036 | 107 ft | 199 kts | 92° |
| 2026-04-23 17:23 | 26.07690 | -80.15538 | 22 ft | 181 kts | 90° |
| 2026-04-23 17:23 | 26.07683 | -80.13851 | 24 ft | 51 kts | 104° |
| 2026-04-23 17:24 | 26.07518 | -80.13724 | 26 ft | 18 kts | 181° |
| 2026-04-23 17:24 | 26.07473 | -80.13746 | 25 ft | 2 kts | 231° |
| 2026-04-23 17:24 | 26.07469 | -80.13858 | 24 ft | 8 kts | 272° |
| 2026-04-23 17:25 | 26.07478 | -80.13966 | 27 ft | 14 kts | 276° |